Terminal Aerodrome Forecast
Issued by NWS

Home | Current Version | Previous Version | Text Only | Print | Product List | Glossary On
Versions: 1 2 3 4 5 6 7 8 9 10 11 12 13 14 15 16 17 18
777
FTUS43 KILX 101146
TAFDEC
TAF
KDEC 101146Z 1012/1112 VRB03KT P6SM OVC060
     FM101800 16008KT P6SM OVC050
     FM110300 16009KT P6SM OVC060=

USA.gov is the U.S. government's official web portal to all federal, state and local government web resources and services.